sensor_id;sensor_type;location;lat;lon;timestamp;pressure;altitude;pressure_sealevel;temperature;humidity
34328;BME280;20588;48.840;10.064;2023-04-20T00:01:48;96449.59;;;2.29;nan
34328;BME280;20588;48.840;10.064;2023-04-20T00:04:14;96448.03;;;2.12;nan
34328;BME280;20588;48.840;10.064;2023-04-20T00:06:41;96448.81;;;2.04;nan
34328;BME280;20588;48.840;10.064;2023-04-20T00:09:09;96437.56;;;1.91;nan
34328;BME280;20588;48.840;10.064;2023-04-20T00:11:36;96431.69;;;1.82;nan
34328;BME280;20588;48.840;10.064;2023-04-20T00:14:02;96432.47;;;1.74;nan
34328;BME280;20588;48.840;10.064;2023-04-20T00:16:28;96422.19;;;1.68;nan
34328;BME280;20588;48.840;10.064;2023-04-20T00:18:54;96425.50;;;1.60;nan
34328;BME280;20588;48.840;10.064;2023-04-20T00:21:20;96425.97;;;1.56;nan
34328;BME280;20588;48.840;10.064;2023-04-20T00:23:49;96420.56;;;1.51;nan
34328;BME280;20588;48.840;10.064;2023-04-20T00:26:15;96414.25;;;1.47;nan
34328;BME280;20588;48.840;10.064;2023-04-20T00:28:42;96413.25;;;1.40;nan
34328;BME280;20588;48.840;10.064;2023-04-20T00:31:08;96409.31;;;1.37;nan
34328;BME280;20588;48.840;10.064;2023-04-20T00:33:35;96415.94;;;1.30;nan
34328;BME280;20588;48.840;10.064;2023-04-20T00:36:01;96409.75;;;1.25;nan
34328;BME280;20588;48.840;10.064;2023-04-20T00:38:27;96399.59;;;1.17;nan
34328;BME280;20588;48.840;10.064;2023-04-20T00:40:56;96399.75;;;1.15;nan
34328;BME280;20588;48.840;10.064;2023-04-20T00:43:22;96396.09;;;1.10;nan
34328;BME280;20588;48.840;10.064;2023-04-20T00:45:49;96396.06;;;1.02;nan
34328;BME280;20588;48.840;10.064;2023-04-20T00:48:17;96396.53;;;0.97;nan
34328;BME280;20588;48.840;10.064;2023-04-20T00:50:44;96392.09;;;0.91;nan
34328;BME280;20588;48.840;10.064;2023-04-20T00:53:10;96387.94;;;0.82;nan
34328;BME280;20588;48.840;10.064;2023-04-20T00:55:38;96393.63;;;0.76;nan
34328;BME280;20588;48.840;10.064;2023-04-20T00:58:05;96387.28;;;0.72;nan
34328;BME280;20588;48.840;10.064;2023-04-20T01:00:32;96378.38;;;0.68;nan
34328;BME280;20588;48.840;10.064;2023-04-20T01:02:58;96383.91;;;0.64;nan
34328;BME280;20588;48.840;10.064;2023-04-20T01:05:25;96365.06;;;0.58;nan
34328;BME280;20588;48.840;10.064;2023-04-20T01:07:51;96364.88;;;0.52;nan
34328;BME280;20588;48.840;10.064;2023-04-20T01:10:18;96358.03;;;0.44;nan
34328;BME280;20588;48.840;10.064;2023-04-20T01:12:44;96356.78;;;0.40;nan
34328;BME280;20588;48.840;10.064;2023-04-20T01:15:10;96344.72;;;0.34;nan
34328;BME280;20588;48.840;10.064;2023-04-20T01:17:36;96340.28;;;0.28;nan
34328;BME280;20588;48.840;10.064;2023-04-20T01:20:08;96348.31;;;0.24;nan
34328;BME280;20588;48.840;10.064;2023-04-20T01:22:48;96353.38;;;0.24;nan
34328;BME280;20588;48.840;10.064;2023-04-20T01:25:15;96345.59;;;0.17;nan
34328;BME280;20588;48.840;10.064;2023-04-20T01:27:41;96345.88;;;0.06;nan
34328;BME280;20588;48.840;10.064;2023-04-20T01:30:08;96346.53;;;0.16;nan
34328;BME280;20588;48.840;10.064;2023-04-20T01:32:35;96342.53;;;0.06;nan
34328;BME280;20588;48.840;10.064;2023-04-20T01:35:01;96336.34;;;0.00;nan
34328;BME280;20588;48.840;10.064;2023-04-20T01:37:28;96327.31;;;-0.03;nan
34328;BME280;20588;48.840;10.064;2023-04-20T01:39:54;96331.84;;;-0.06;nan
34328;BME280;20588;48.840;10.064;2023-04-20T01:42:20;96315.13;;;-0.07;nan
34328;BME280;20588;48.840;10.064;2023-04-20T01:44:47;96313.53;;;-0.08;nan
34328;BME280;20588;48.840;10.064;2023-04-20T01:47:13;96322.34;;;-0.12;nan
34328;BME280;20588;48.840;10.064;2023-04-20T01:49:39;96322.50;;;-0.14;nan
34328;BME280;20588;48.840;10.064;2023-04-20T01:52:06;96318.53;;;-0.16;nan
34328;BME280;20588;48.840;10.064;2023-04-20T01:54:32;96319.50;;;-0.17;nan
34328;BME280;20588;48.840;10.064;2023-04-20T01:56:58;96320.56;;;-0.20;nan
34328;BME280;20588;48.840;10.064;2023-04-20T01:59:24;96321.50;;;-0.21;nan
34328;BME280;20588;48.840;10.064;2023-04-20T02:01:50;96315.19;;;-0.25;nan
34328;BME280;20588;48.840;10.064;2023-04-20T02:04:16;96315.31;;;-0.26;nan
34328;BME280;20588;48.840;10.064;2023-04-20T02:06:42;96312.81;;;-0.26;nan
34328;BME280;20588;48.840;10.064;2023-04-20T02:09:08;96318.63;;;-0.26;nan
34328;BME280;20588;48.840;10.064;2023-04-20T02:11:34;96312.00;;;-0.27;nan
34328;BME280;20588;48.840;10.064;2023-04-20T02:14:01;96308.66;;;-0.27;nan
34328;BME280;20588;48.840;10.064;2023-04-20T02:16:27;96307.38;;;-0.31;nan
34328;BME280;20588;48.840;10.064;2023-04-20T02:18:56;96307.38;;;-0.31;nan
34328;BME280;20588;48.840;10.064;2023-04-20T02:21:22;96301.69;;;-0.33;nan
34328;BME280;20588;48.840;10.064;2023-04-20T02:23:49;96306.09;;;-0.35;nan
34328;BME280;20588;48.840;10.064;2023-04-20T02:26:15;96304.81;;;-0.39;nan
34328;BME280;20588;48.840;10.064;2023-04-20T02:28:41;96310.44;;;-0.45;nan
34328;BME280;20588;48.840;10.064;2023-04-20T02:31:08;96311.84;;;-0.51;nan
34328;BME280;20588;48.840;10.064;2023-04-20T02:33:34;96306.28;;;-0.54;nan
34328;BME280;20588;48.840;10.064;2023-04-20T02:36:00;96299.78;;;-0.57;nan
34328;BME280;20588;48.840;10.064;2023-04-20T02:38:26;96296.75;;;-0.60;nan
34328;BME280;20588;48.840;10.064;2023-04-20T02:40:52;96299.56;;;-0.63;nan
34328;BME280;20588;48.840;10.064;2023-04-20T02:43:18;96296.44;;;-0.65;nan
34328;BME280;20588;48.840;10.064;2023-04-20T02:45:45;96285.66;;;-0.67;nan
34328;BME280;20588;48.840;10.064;2023-04-20T02:48:11;96290.22;;;-0.71;nan
34328;BME280;20588;48.840;10.064;2023-04-20T02:50:38;96288.78;;;-0.73;nan
34328;BME280;20588;48.840;10.064;2023-04-20T02:53:04;96283.22;;;-0.77;nan
34328;BME280;20588;48.840;10.064;2023-04-20T02:55:30;96288.41;;;-0.78;nan
34328;BME280;20588;48.840;10.064;2023-04-20T02:57:56;96276.59;;;-0.78;nan
34328;BME280;20588;48.840;10.064;2023-04-20T03:00:22;96278.47;;;-0.80;nan
34328;BME280;20588;48.840;10.064;2023-04-20T03:02:49;96272.91;;;-0.83;nan
34328;BME280;20588;48.840;10.064;2023-04-20T03:05:15;96265.47;;;-0.85;nan
34328;BME280;20588;48.840;10.064;2023-04-20T03:07:41;96271.47;;;-0.86;nan
34328;BME280;20588;48.840;10.064;2023-04-20T03:10:08;96273.19;;;-0.86;nan
34328;BME280;20588;48.840;10.064;2023-04-20T03:12:34;96273.47;;;-0.89;nan
34328;BME280;20588;48.840;10.064;2023-04-20T03:15:02;96266.06;;;-0.91;nan
34328;BME280;20588;48.840;10.064;2023-04-20T03:17:29;96264.63;;;-0.93;nan
34328;BME280;20588;48.840;10.064;2023-04-20T03:19:55;96264.63;;;-0.93;nan
34328;BME280;20588;48.840;10.064;2023-04-20T03:22:21;96265.72;;;-0.96;nan
34328;BME280;20588;48.840;10.064;2023-04-20T03:24:47;96258.44;;;-0.99;nan
34328;BME280;20588;48.840;10.064;2023-04-20T03:27:13;96263.50;;;-0.99;nan
34328;BME280;20588;48.840;10.064;2023-04-20T03:29:39;96261.88;;;-1.00;nan
34328;BME280;20588;48.840;10.064;2023-04-20T03:32:05;96252.88;;;-1.02;nan
34328;BME280;20588;48.840;10.064;2023-04-20T03:34:31;96263.94;;;-1.03;nan
34328;BME280;20588;48.840;10.064;2023-04-20T03:36:57;96254.13;;;-1.06;nan
34328;BME280;20588;48.840;10.064;2023-04-20T03:39:23;96259.31;;;-1.08;nan
34328;BME280;20588;48.840;10.064;2023-04-20T03:41:49;96260.09;;;-1.07;nan
34328;BME280;20588;48.840;10.064;2023-04-20T03:44:16;96250.94;;;-1.08;nan
34328;BME280;20588;48.840;10.064;2023-04-20T03:46:42;96256.13;;;-1.10;nan
34328;BME280;20588;48.840;10.064;2023-04-20T03:49:08;96250.28;;;-1.10;nan
34328;BME280;20588;48.840;10.064;2023-04-20T03:51:34;96254.41;;;-1.09;nan
34328;BME280;20588;48.840;10.064;2023-04-20T03:54:00;96250.28;;;-1.10;nan
34328;BME280;20588;48.840;10.064;2023-04-20T03:56:26;96246.31;;;-1.13;nan
34328;BME280;20588;48.840;10.064;2023-04-20T03:58:53;96245.53;;;-1.13;nan
34328;BME280;20588;48.840;10.064;2023-04-20T04:01:19;96244.09;;;-1.16;nan
34328;BME280;20588;48.840;10.064;2023-04-20T04:03:45;96242.50;;;-1.17;nan
34328;BME280;20588;48.840;10.064;2023-04-20T04:06:11;96243.56;;;-1.19;nan
34328;BME280;20588;48.840;10.064;2023-04-20T04:08:37;96236.31;;;-1.22;nan
34328;BME280;20588;48.840;10.064;2023-04-20T04:11:03;96241.50;;;-1.24;nan
34328;BME280;20588;48.840;10.064;2023-04-20T04:13:29;96245.91;;;-1.26;nan
34328;BME280;20588;48.840;10.064;2023-04-20T04:15:55;96248.72;;;-1.29;nan
34328;BME280;20588;48.840;10.064;2023-04-20T04:18:21;96239.69;;;-1.31;nan
34328;BME280;20588;48.840;10.064;2023-04-20T04:20:47;96243.81;;;-1.30;nan
34328;BME280;20588;48.840;10.064;2023-04-20T04:23:14;96241.16;;;-1.29;nan
34328;BME280;20588;48.840;10.064;2023-04-20T04:25:40;96245.25;;;-1.28;nan
34328;BME280;20588;48.840;10.064;2023-04-20T04:28:06;96242.94;;;-1.21;nan
34328;BME280;20588;48.840;10.064;2023-04-20T04:30:32;96238.81;;;-1.22;nan
34328;BME280;20588;48.840;10.064;2023-04-20T04:32:58;96234.44;;;-1.20;nan
34328;BME280;20588;48.840;10.064;2023-04-20T04:35:25;96233.34;;;-1.18;nan
34328;BME280;20588;48.840;10.064;2023-04-20T04:37:51;96232.28;;;-1.15;nan
34328;BME280;20588;48.840;10.064;2023-04-20T04:40:20;96231.34;;;-1.14;nan
34328;BME280;20588;48.840;10.064;2023-04-20T04:42:46;96232.75;;;-1.12;nan
34328;BME280;20588;48.840;10.064;2023-04-20T04:45:13;96234.22;;;-1.09;nan
34328;BME280;20588;48.840;10.064;2023-04-20T04:47:40;96240.69;;;-1.07;nan
34328;BME280;20588;48.840;10.064;2023-04-20T04:50:08;96236.50;;;-0.98;nan
34328;BME280;20588;48.840;10.064;2023-04-20T04:52:35;96240.72;;;-0.81;nan
34328;BME280;20588;48.840;10.064;2023-04-20T04:55:02;96241.50;;;-0.63;nan
34328;BME280;20588;48.840;10.064;2023-04-20T04:57:32;96236.66;;;-0.57;nan
34328;BME280;20588;48.840;10.064;2023-04-20T04:59:58;96240.22;;;-0.42;nan
34328;BME280;20588;48.840;10.064;2023-04-20T05:02:24;96234.47;;;-0.18;nan
34328;BME280;20588;48.840;10.064;2023-04-20T05:04:50;96235.53;;;0.05;nan
34328;BME280;20588;48.840;10.064;2023-04-20T05:07:17;96226.31;;;0.38;nan
34328;BME280;20588;48.840;10.064;2023-04-20T05:09:43;96230.34;;;0.72;nan
34328;BME280;20588;48.840;10.064;2023-04-20T05:12:09;96231.00;;;0.90;nan
34328;BME280;20588;48.840;10.064;2023-04-20T05:14:35;96229.88;;;1.25;nan
34328;BME280;20588;48.840;10.064;2023-04-20T05:17:01;96226.81;;;2.08;nan
34328;BME280;20588;48.840;10.064;2023-04-20T05:19:27;96222.53;;;3.15;nan
34328;BME280;20588;48.840;10.064;2023-04-20T05:21:53;96224.50;;;3.94;nan
34328;BME280;20588;48.840;10.064;2023-04-20T05:24:19;96220.00;;;5.02;nan
34328;BME280;20588;48.840;10.064;2023-04-20T05:26:46;96223.66;;;5.91;nan
34328;BME280;20588;48.840;10.064;2023-04-20T05:29:12;96218.56;;;6.44;nan
34328;BME280;20588;48.840;10.064;2023-04-20T05:31:38;96220.88;;;6.93;nan
34328;BME280;20588;48.840;10.064;2023-04-20T05:34:05;96222.03;;;7.88;nan
34328;BME280;20588;48.840;10.064;2023-04-20T05:36:31;96219.69;;;8.57;nan
34328;BME280;20588;48.840;10.064;2023-04-20T05:38:58;96218.75;;;9.13;nan
34328;BME280;20588;48.840;10.064;2023-04-20T05:41:24;96213.38;;;9.89;nan
34328;BME280;20588;48.840;10.064;2023-04-20T05:43:54;96208.69;;;10.40;nan
34328;BME280;20588;48.840;10.064;2023-04-20T05:46:20;96213.19;;;10.74;nan
34328;BME280;20588;48.840;10.064;2023-04-20T05:48:46;96215.13;;;10.78;nan
34328;BME280;20588;48.840;10.064;2023-04-20T05:51:13;96212.50;;;10.37;nan
34328;BME280;20588;48.840;10.064;2023-04-20T05:53:39;96217.00;;;9.39;nan
34328;BME280;20588;48.840;10.064;2023-04-20T05:56:06;96210.47;;;8.36;nan
34328;BME280;20588;48.840;10.064;2023-04-20T05:58:32;96213.81;;;7.54;nan
34328;BME280;20588;48.840;10.064;2023-04-20T06:01:00;96217.72;;;6.84;nan
34328;BME280;20588;48.840;10.064;2023-04-20T06:03:27;96219.94;;;6.40;nan
34328;BME280;20588;48.840;10.064;2023-04-20T06:05:53;96222.94;;;6.10;nan
34328;BME280;20588;48.840;10.064;2023-04-20T06:08:19;96217.75;;;5.90;nan
34328;BME280;20588;48.840;10.064;2023-04-20T06:10:45;96211.31;;;6.01;nan
34328;BME280;20588;48.840;10.064;2023-04-20T06:13:11;96219.50;;;6.30;nan
34328;BME280;20588;48.840;10.064;2023-04-20T06:15:37;96212.69;;;6.50;nan
34328;BME280;20588;48.840;10.064;2023-04-20T06:18:03;96218.72;;;6.96;nan
34328;BME280;20588;48.840;10.064;2023-04-20T06:20:30;96213.03;;;7.47;nan
34328;BME280;20588;48.840;10.064;2023-04-20T06:22:56;96210.41;;;7.86;nan
34328;BME280;20588;48.840;10.064;2023-04-20T06:25:22;96208.53;;;8.32;nan
34328;BME280;20588;48.840;10.064;2023-04-20T06:27:48;96214.63;;;8.81;nan
34328;BME280;20588;48.840;10.064;2023-04-20T06:30:14;96212.69;;;9.33;nan
34328;BME280;20588;48.840;10.064;2023-04-20T06:32:41;96196.56;;;9.68;nan
34328;BME280;20588;48.840;10.064;2023-04-20T06:35:07;96211.91;;;9.57;nan
34328;BME280;20588;48.840;10.064;2023-04-20T06:37:34;96209.34;;;9.57;nan
34328;BME280;20588;48.840;10.064;2023-04-20T06:40:01;96204.72;;;10.01;nan
34328;BME280;20588;48.840;10.064;2023-04-20T06:42:32;96200.75;;;9.87;nan
34328;BME280;20588;48.840;10.064;2023-04-20T06:44:58;96199.59;;;9.16;nan
34328;BME280;20588;48.840;10.064;2023-04-20T06:47:25;96203.41;;;8.32;nan
34328;BME280;20588;48.840;10.064;2023-04-20T06:49:57;96204.34;;;7.48;nan
34328;BME280;20588;48.840;10.064;2023-04-20T06:52:23;96209.25;;;6.97;nan
34328;BME280;20588;48.840;10.064;2023-04-20T06:54:49;96205.25;;;6.55;nan
34328;BME280;20588;48.840;10.064;2023-04-20T06:57:15;96204.13;;;6.71;nan
34328;BME280;20588;48.840;10.064;2023-04-20T06:59:41;96206.88;;;6.69;nan
34328;BME280;20588;48.840;10.064;2023-04-20T07:02:07;96201.97;;;6.94;nan
34328;BME280;20588;48.840;10.064;2023-04-20T07:04:33;96200.72;;;6.64;nan
34328;BME280;20588;48.840;10.064;2023-04-20T07:06:59;96202.56;;;6.83;nan
34328;BME280;20588;48.840;10.064;2023-04-20T07:09:25;96207.47;;;6.84;nan
34328;BME280;20588;48.840;10.064;2023-04-20T07:11:52;96212.13;;;6.61;nan
34328;BME280;20588;48.840;10.064;2023-04-20T07:14:18;96213.69;;;6.49;nan
34328;BME280;20588;48.840;10.064;2023-04-20T07:16:45;96206.59;;;6.51;nan
34328;BME280;20588;48.840;10.064;2023-04-20T07:19:11;96203.66;;;6.48;nan
34328;BME280;20588;48.840;10.064;2023-04-20T07:21:37;96203.47;;;6.56;nan
34328;BME280;20588;48.840;10.064;2023-04-20T07:24:03;96201.09;;;6.54;nan
34328;BME280;20588;48.840;10.064;2023-04-20T07:26:29;96200.69;;;6.44;nan
34328;BME280;20588;48.840;10.064;2023-04-20T07:28:56;96205.81;;;6.51;nan
34328;BME280;20588;48.840;10.064;2023-04-20T07:31:22;96205.63;;;6.59;nan
34328;BME280;20588;48.840;10.064;2023-04-20T07:33:48;96204.31;;;6.69;nan
34328;BME280;20588;48.840;10.064;2023-04-20T07:36:14;96205.91;;;6.90;nan
34328;BME280;20588;48.840;10.064;2023-04-20T07:38:40;96216.75;;;7.05;nan
34328;BME280;20588;48.840;10.064;2023-04-20T07:41:09;96213.78;;;7.08;nan
34328;BME280;20588;48.840;10.064;2023-04-20T07:43:36;96209.09;;;7.31;nan
34328;BME280;20588;48.840;10.064;2023-04-20T07:46:02;96213.19;;;6.80;nan
34328;BME280;20588;48.840;10.064;2023-04-20T07:48:29;96214.56;;;6.95;nan
34328;BME280;20588;48.840;10.064;2023-04-20T07:50:55;96214.78;;;7.07;nan
34328;BME280;20588;48.840;10.064;2023-04-20T07:53:21;96207.28;;;6.86;nan
34328;BME280;20588;48.840;10.064;2023-04-20T07:55:47;96214.56;;;6.89;nan
34328;BME280;20588;48.840;10.064;2023-04-20T07:58:13;96218.13;;;6.94;nan
34328;BME280;20588;48.840;10.064;2023-04-20T08:00:41;96223.81;;;6.90;nan
34328;BME280;20588;48.840;10.064;2023-04-20T08:03:07;96218.91;;;7.01;nan
34328;BME280;20588;48.840;10.064;2023-04-20T08:05:33;96224.63;;;7.10;nan
34328;BME280;20588;48.840;10.064;2023-04-20T08:07:59;96218.72;;;7.16;nan
34328;BME280;20588;48.840;10.064;2023-04-20T08:10:25;96229.31;;;6.87;nan
34328;BME280;20588;48.840;10.064;2023-04-20T08:12:51;96228.72;;;6.91;nan
34328;BME280;20588;48.840;10.064;2023-04-20T08:15:18;96224.59;;;6.97;nan
34328;BME280;20588;48.840;10.064;2023-04-20T08:17:44;96221.03;;;6.85;nan
34328;BME280;20588;48.840;10.064;2023-04-20T08:20:10;96219.28;;;6.98;nan
34328;BME280;20588;48.840;10.064;2023-04-20T08:22:37;96215.69;;;6.67;nan
34328;BME280;20588;48.840;10.064;2023-04-20T08:25:04;96215.31;;;6.63;nan
34328;BME280;20588;48.840;10.064;2023-04-20T08:27:30;96210.91;;;6.44;nan
34328;BME280;20588;48.840;10.064;2023-04-20T08:29:57;96207.84;;;6.75;nan
34328;BME280;20588;48.840;10.064;2023-04-20T08:32:23;96205.50;;;6.80;nan
34328;BME280;20588;48.840;10.064;2023-04-20T08:34:51;96199.16;;;6.63;nan
34328;BME280;20588;48.840;10.064;2023-04-20T08:37:18;96201.97;;;6.81;nan
34328;BME280;20588;48.840;10.064;2023-04-20T08:39:44;96201.00;;;7.01;nan
34328;BME280;20588;48.840;10.064;2023-04-20T08:42:11;96192.94;;;7.44;nan
34328;BME280;20588;48.840;10.064;2023-04-20T08:44:37;96193.09;;;7.68;nan
34328;BME280;20588;48.840;10.064;2023-04-20T08:47:03;96190.28;;;7.89;nan
34328;BME280;20588;48.840;10.064;2023-04-20T08:49:29;96198.53;;;8.04;nan
34328;BME280;20588;48.840;10.064;2023-04-20T08:51:56;96194.78;;;8.13;nan
34328;BME280;20588;48.840;10.064;2023-04-20T08:54:22;96195.66;;;7.81;nan
34328;BME280;20588;48.840;10.064;2023-04-20T08:56:48;96198.41;;;7.73;nan
34328;BME280;20588;48.840;10.064;2023-04-20T08:59:17;96183.06;;;7.80;nan
34328;BME280;20588;48.840;10.064;2023-04-20T09:01:43;96196.41;;;7.82;nan
34328;BME280;20588;48.840;10.064;2023-04-20T09:04:25;96193.72;;;7.44;nan
34328;BME280;20588;48.840;10.064;2023-04-20T09:06:55;96189.00;;;7.41;nan
34328;BME280;20588;48.840;10.064;2023-04-20T09:09:23;96184.47;;;7.50;nan
34328;BME280;20588;48.840;10.064;2023-04-20T09:12:08;96188.53;;;7.83;nan
34328;BME280;20588;48.840;10.064;2023-04-20T09:14:45;96187.09;;;8.13;nan
34328;BME280;20588;48.840;10.064;2023-04-20T09:17:14;96175.91;;;8.52;nan
34328;BME280;20588;48.840;10.064;2023-04-20T09:19:42;96187.56;;;8.48;nan
34328;BME280;20588;48.840;10.064;2023-04-20T09:22:08;96176.63;;;8.59;nan
34328;BME280;20588;48.840;10.064;2023-04-20T09:24:38;96180.78;;;8.91;nan
34328;BME280;20588;48.840;10.064;2023-04-20T09:27:18;96180.13;;;9.02;nan
34328;BME280;20588;48.840;10.064;2023-04-20T09:29:56;96173.44;;;9.26;nan
34328;BME280;20588;48.840;10.064;2023-04-20T09:32:23;96168.19;;;9.39;nan
34328;BME280;20588;48.840;10.064;2023-04-20T09:34:50;96169.31;;;9.85;nan
34328;BME280;20588;48.840;10.064;2023-04-20T09:37:16;96173.69;;;10.03;nan
34328;BME280;20588;48.840;10.064;2023-04-20T09:39:44;96179.81;;;9.66;nan
34328;BME280;20588;48.840;10.064;2023-04-20T09:42:12;96177.63;;;8.64;nan
34328;BME280;20588;48.840;10.064;2023-04-20T09:44:38;96179.09;;;8.41;nan
34328;BME280;20588;48.840;10.064;2023-04-20T09:47:05;96168.34;;;8.19;nan
34328;BME280;20588;48.840;10.064;2023-04-20T09:49:32;96168.53;;;8.24;nan
34328;BME280;20588;48.840;10.064;2023-04-20T09:52:01;96166.75;;;8.31;nan
34328;BME280;20588;48.840;10.064;2023-04-20T09:54:28;96163.06;;;8.58;nan
34328;BME280;20588;48.840;10.064;2023-04-20T09:56:59;96165.19;;;8.92;nan
34328;BME280;20588;48.840;10.064;2023-04-20T09:59:30;96164.78;;;8.95;nan
34328;BME280;20588;48.840;10.064;2023-04-20T10:01:58;96153.75;;;8.95;nan
34328;BME280;20588;48.840;10.064;2023-04-20T10:04:24;96147.88;;;9.12;nan
34328;BME280;20588;48.840;10.064;2023-04-20T10:06:55;96135.97;;;9.43;nan
34328;BME280;20588;48.840;10.064;2023-04-20T10:09:24;96138.94;;;9.40;nan
34328;BME280;20588;48.840;10.064;2023-04-20T10:12:08;96134.47;;;9.53;nan
34328;BME280;20588;48.840;10.064;2023-04-20T10:14:34;96123.00;;;9.74;nan
34328;BME280;20588;48.840;10.064;2023-04-20T10:17:07;96120.88;;;9.89;nan
34328;BME280;20588;48.840;10.064;2023-04-20T10:19:41;96112.78;;;10.03;nan
34328;BME280;20588;48.840;10.064;2023-04-20T10:22:09;96120.50;;;9.85;nan
34328;BME280;20588;48.840;10.064;2023-04-20T10:24:35;96121.41;;;9.37;nan
34328;BME280;20588;48.840;10.064;2023-04-20T10:27:04;96119.91;;;9.29;nan
34328;BME280;20588;48.840;10.064;2023-04-20T10:29:40;96115.03;;;9.21;nan
34328;BME280;20588;48.840;10.064;2023-04-20T10:32:06;96118.34;;;9.28;nan
34328;BME280;20588;48.840;10.064;2023-04-20T10:34:34;96117.91;;;9.31;nan
34328;BME280;20588;48.840;10.064;2023-04-20T10:39:33;96114.75;;;9.29;nan
34328;BME280;20588;48.840;10.064;2023-04-20T10:42:00;96116.25;;;9.37;nan
34328;BME280;20588;48.840;10.064;2023-04-20T10:44:27;96123.50;;;9.64;nan
34328;BME280;20588;48.840;10.064;2023-04-20T10:46:54;96120.56;;;9.61;nan
34328;BME280;20588;48.840;10.064;2023-04-20T10:49:25;96117.34;;;9.47;nan
34328;BME280;20588;48.840;10.064;2023-04-20T10:51:53;96116.56;;;9.04;nan
34328;BME280;20588;48.840;10.064;2023-04-20T10:54:19;96105.47;;;8.85;nan
34328;BME280;20588;48.840;10.064;2023-04-20T10:56:50;96106.28;;;8.79;nan
34328;BME280;20588;48.840;10.064;2023-04-20T10:59:19;96110.78;;;8.84;nan
34328;BME280;20588;48.840;10.064;2023-04-20T11:01:46;96119.16;;;8.73;nan
34328;BME280;20588;48.840;10.064;2023-04-20T11:04:13;96112.53;;;8.59;nan
34328;BME280;20588;48.840;10.064;2023-04-20T11:06:41;96114.91;;;8.29;nan
34328;BME280;20588;48.840;10.064;2023-04-20T11:09:25;96105.63;;;8.28;nan
34328;BME280;20588;48.840;10.064;2023-04-20T11:12:03;96104.03;;;8.27;nan
34328;BME280;20588;48.840;10.064;2023-04-20T11:14:37;96096.59;;;8.19;nan
34328;BME280;20588;48.840;10.064;2023-04-20T11:17:03;96095.00;;;8.18;nan
34328;BME280;20588;48.840;10.064;2023-04-20T11:19:34;96095.81;;;8.12;nan
34328;BME280;20588;48.840;10.064;2023-04-20T11:22:03;96088.94;;;8.06;nan
34328;BME280;20588;48.840;10.064;2023-04-20T11:24:31;96074.75;;;8.10;nan
34328;BME280;20588;48.840;10.064;2023-04-20T11:26:58;96074.34;;;8.13;nan
34328;BME280;20588;48.840;10.064;2023-04-20T11:29:44;96081.84;;;8.15;nan
34328;BME280;20588;48.840;10.064;2023-04-20T11:32:10;96084.22;;;8.10;nan
34328;BME280;20588;48.840;10.064;2023-04-20T11:34:38;96086.81;;;8.03;nan
34328;BME280;20588;48.840;10.064;2023-04-20T11:37:09;96077.16;;;8.05;nan
34328;BME280;20588;48.840;10.064;2023-04-20T11:39:37;96077.66;;;8.20;nan
34328;BME280;20588;48.840;10.064;2023-04-20T11:42:03;96080.03;;;8.15;nan
34328;BME280;20588;48.840;10.064;2023-04-20T11:44:30;96074.91;;;8.15;nan
34328;BME280;20588;48.840;10.064;2023-04-20T11:46:56;96076.09;;;8.19;nan
34328;BME280;20588;48.840;10.064;2023-04-20T11:49:23;96074.50;;;8.25;nan
34328;BME280;20588;48.840;10.064;2023-04-20T11:51:50;96081.56;;;8.29;nan
34328;BME280;20588;48.840;10.064;2023-04-20T11:54:17;96088.22;;;8.37;nan
34328;BME280;20588;48.840;10.064;2023-04-20T11:56:46;96086.34;;;8.19;nan
34328;BME280;20588;48.840;10.064;2023-04-20T11:59:13;96082.81;;;8.14;nan
34328;BME280;20588;48.840;10.064;2023-04-20T12:01:41;96081.88;;;8.02;nan
34328;BME280;20588;48.840;10.064;2023-04-20T12:04:07;96081.50;;;7.98;nan
34328;BME280;20588;48.840;10.064;2023-04-20T12:06:33;96084.06;;;7.98;nan
34328;BME280;20588;48.840;10.064;2023-04-20T12:08:59;96078.19;;;7.85;nan
34328;BME280;20588;48.840;10.064;2023-04-20T12:11:26;96073.16;;;7.72;nan
34328;BME280;20588;48.840;10.064;2023-04-20T12:13:52;96098.16;;;7.76;nan
34328;BME280;20588;48.840;10.064;2023-04-20T12:16:19;96090.47;;;7.76;nan
34328;BME280;20588;48.840;10.064;2023-04-20T12:18:46;96094.25;;;7.67;nan
34328;BME280;20588;48.840;10.064;2023-04-20T12:21:12;96092.47;;;7.68;nan
34328;BME280;20588;48.840;10.064;2023-04-20T12:23:38;96100.34;;;7.66;nan
34328;BME280;20588;48.840;10.064;2023-04-20T12:26:05;96104.47;;;7.67;nan
34328;BME280;20588;48.840;10.064;2023-04-20T12:28:31;96093.56;;;7.85;nan
34328;BME280;20588;48.840;10.064;2023-04-20T12:30:58;96097.97;;;7.71;nan
34328;BME280;20588;48.840;10.064;2023-04-20T12:33:24;96097.94;;;7.78;nan
34328;BME280;20588;48.840;10.064;2023-04-20T12:35:50;96097.00;;;7.66;nan
34328;BME280;20588;48.840;10.064;2023-04-20T12:38:17;96094.88;;;7.50;nan
34328;BME280;20588;48.840;10.064;2023-04-20T12:40:43;96094.69;;;7.51;nan
34328;BME280;20588;48.840;10.064;2023-04-20T12:43:09;96093.09;;;7.50;nan
34328;BME280;20588;48.840;10.064;2023-04-20T12:45:35;96096.25;;;7.52;nan
34328;BME280;20588;48.840;10.064;2023-04-20T12:48:01;96092.34;;;7.50;nan
34328;BME280;20588;48.840;10.064;2023-04-20T12:50:27;96089.94;;;7.61;nan
34328;BME280;20588;48.840;10.064;2023-04-20T12:52:54;96085.81;;;7.54;nan
34328;BME280;20588;48.840;10.064;2023-04-20T12:55:24;96086.81;;;7.46;nan
34328;BME280;20588;48.840;10.064;2023-04-20T12:57:50;96083.44;;;7.59;nan
34328;BME280;20588;48.840;10.064;2023-04-20T13:00:17;96085.00;;;7.60;nan
34328;BME280;20588;48.840;10.064;2023-04-20T13:02:43;96081.03;;;7.64;nan
34328;BME280;20588;48.840;10.064;2023-04-20T13:05:09;96088.31;;;7.73;nan
34328;BME280;20588;48.840;10.064;2023-04-20T13:07:36;96089.63;;;7.89;nan
34328;BME280;20588;48.840;10.064;2023-04-20T13:10:02;96085.25;;;8.02;nan
34328;BME280;20588;48.840;10.064;2023-04-20T13:12:28;96079.28;;;8.08;nan
34328;BME280;20588;48.840;10.064;2023-04-20T13:14:54;96081.00;;;8.21;nan
34328;BME280;20588;48.840;10.064;2023-04-20T13:17:20;96077.66;;;8.20;nan
34328;BME280;20588;48.840;10.064;2023-04-20T13:19:48;96080.00;;;8.28;nan
34328;BME280;20588;48.840;10.064;2023-04-20T13:22:14;96076.28;;;8.24;nan